Flight Track Log - Related Links

Times and Time Zones

All times are in EDT time to prevent confusion due to time zone crossing. See the EGF4278 flight status page for this flight to view local times or setup timezone preferences in your user account.

Time Position Orientation Groundspeed Altitude Reporting Facility
EDT Latitude Longitude Course Direction KTS MPH feet Rate Location/Type
Tue 07:11:09 AM 40.1161 -88.3283 355° North 200 230 3,800  Level Chicago Center
Tue 07:12:00 AM 40.1536 -87.9797 37° Northeast  Level FlightAware Approximate
Tue 07:12:10 AM 40.1744 -88.3628 336° Northwest 222 255 5,500  Level Chicago Center
Tue 07:13:00 AM 40.2006 -87.8904 60° Northeast  Level FlightAware Approximate
Tue 07:13:11 AM 40.2450 -88.4019 337° Northwest 252 290 8,000  Level Chicago Center
Tue 07:14:00 AM 40.2414 -87.7946 64° Northeast  Level FlightAware Approximate
Tue 07:14:12 AM 40.3089 -88.4389 336° Northwest 251 289 9,700  Level Chicago Center
Tue 07:15:00 AM 40.2774 -87.6955 64° Northeast  Level FlightAware Approximate
Tue 07:15:13 AM 40.3756 -88.4772 336° Northwest 261 300 11,000  Level Chicago Center
Tue 07:16:00 AM 40.3535 -87.7047 355° North  Level Estimated
Tue 07:16:14 AM 40.4661 -88.5294 336° Northwest 296 341 12,300  Level Chicago Center
Tue 07:17:15 AM 40.5458 -88.5753 336° Northwest 311 358 13,500 1,220 Climbing Chicago Center
Tue 07:18:17 AM 40.6292 -88.6217 337° Northwest 323 372 14,800 1,415 Climbing Chicago Center
Tue 07:19:18 AM 40.7103 -88.6689 336° Northwest 321 369 16,400 1,525 Climbing Chicago Center
Tue 07:20:19 AM 40.7889 -88.7133 337° Northwest 311 358 17,900 1,328 Climbing Chicago Center
Tue 07:21:20 AM 40.8714 -88.7272 353° North 315 362 19,100 1,366 Climbing Chicago Center
Tue 07:22:22 AM 40.9597 -88.7133 North 320 368 20,700 1,317 Climbing Chicago Center
Tue 07:23:23 AM 41.0478 -88.6986 North 318 366 21,800 -49 Climbing Chicago Center
Tue 07:24:24 AM 41.1456 -88.6836 North 353 406 20,600 -2,488 Descending Chicago Center
Tue 07:25:26 AM 41.2489 -88.6689 North 371 427 16,700 -4,000 Descending Chicago Center
Tue 07:26:27 AM 41.3678 -88.6519 North 358 412 12,400 -2,803 Descending Chicago Center
Tue 07:27:28 AM 41.4606 -88.6364 North 338 389 11,000 -683 Descending Chicago Center
Tue 07:28:30 AM 41.5456 -88.5831 25° Northeast 360 414 11,000  Level Chicago Center
Tue 07:29:31 AM 41.6092 -88.4767 51° Northeast 365 420 11,000  Level Chicago Center
Tue 07:30:33 AM 41.6700 -88.3703 53° Northeast 360 414 11,000  Level Chicago Center
Tue 07:31:34 AM 41.7336 -88.2575 53° Northeast 375 432 11,000 -390 Level Chicago Center
Tue 07:32:36 AM 41.7928 -88.1531 53° Northeast 354 407 10,200 -976 Descending Chicago Center
Tue 07:33:37 AM 41.8417 -88.0644 53° Northeast 302 348 9,000 -1,361 Descending Chicago Center
Tue 07:34:13 AM 41.8833 -88.0000 49° Northeast 291 335 8,000 -1,250 Descending Chicago TRACON
Tue 07:35:13 AM 41.8833 -87.8833 90° East 288 331 7,000 -690 Descending Chicago TRACON
Tue 07:35:40 AM 41.8844 -87.8508 87° East 280 322 7,000 -809 Level Chicago Center
Tue 07:36:42 AM 41.8842 -87.7600 90° East 254 292 5,800 -1,258 Descending Chicago Center
Tue 07:37:44 AM 41.9042 -87.6814 71° East 251 289 4,400 -1,355 Descending Chicago Center

Login

Don't have an account? Register now (free) for customized features, flight alerts, and more!